Anvik, AK

5:02 PM AKDT on August 27, 2014 (GMT -0800)
Anvik | Change Station
CLOSE
Current Station
Airport
Location: Anvik,
Elevation: 308 ft
Nearby Weather Stations

Elev 308 ft 62.65 °N, 160.19 °W | Updated 6 minutes ago

Clear
Clear
63 °F
Feels Like 63 °F
N
7
Wind Variable Wind from NE

Today
High -- | Low -- °F
--% Chance of Precip.
Yesterday
High -- | Low -- °F
Precip. -- in
7:14 AM 10:09 PM
Waxing Crescent, 5% visible
Pressure 29.68 in
Visibility 10.0 miles
Clouds Clear
Dew Point 46 °F
Humidity 55%
Rainfall 0.00 in
Snow Depth Not available.
UV 3 out of 12
Pollen Not available.
Air Quality Not available.
Flu Activity Not available.
METAR PANV 280056Z AUTO 04006KT 10SM CLR 17/08 A2968 RMK AO1

More Conditions Fewer Conditions

Pressure 29.68 in
Visibility 10.0 miles
Clouds Clear
Dew Point 46 °F
Humidity 55%
Rainfall 0.00 in
Snow Depth Not available.
UV 3 out of 12
Pollen Not available.
Air Quality Not available.
Flu Activity Not available.
METAR PANV 280056Z AUTO 04006KT 10SM CLR 17/08 A2968 RMK AO1

More Conditions Fewer Conditions

10-Day Weather Forecast

Almanac

Astronomy

Aug. 27, 2014 Rise Set
Actual Time 7:14 AM AKDT 10:09 PM AKDT
Civil Twilight 6:21 AM AKDT 11:01 PM AKDT
Nautical Twilight 5:06 AM AKDT 12:15 AM AKDT
Astronomical Twilight 3:15 AM AKDT 2:10 AM AKDT
Moon 10:17 AM AKDT (8/27) 10:05 PM AKDT (8/27)
Length of Visible Light 16h 39m
Length of Day
14h 54m
Tomorrow will be 6m 8s shorter.
Waxing Crescent, 5% of the Moon is Illuminated
Today
Waxing Crescent
Sep 2
First Quarter
Sep 8
Full
Sep 15
Last Quarter
Sep 24
New

Today's Extremes

State Highs State Lows

Community

WunderPhotos

Upload Photos

1,747,843 photos uploaded!

Nearby

Snow Depth

Station Depth Elevation
Rocky Point 4 in 500 ft
Susitna Valley High 2 in 375 ft
Point Mackenzie 1 in 200 ft
Mcneil Canyon 1 in 1320 ft
Indian Pass 2 in 2300 ft

Earthquake Activity

City Distance Mag. Time & Date
No recent earthquake activity has been reported nearby.
Minimum magnitude displayed is 2.5.

Coastal Water Temperatures

Place Temperature
No Stations Reporting

Nearby Weather Stations